Latest Weather Observations for Kilmore Gap

IDV60801

Issued at 12:52 pm EST Saturday 1 October 2022 (issued every 10 minutes, with the page automatically refreshed every 10 minutes)

About weather observations | Map of weather stations | Latest weather observations for VIC | Other Formats
Station Details ID: 088162 Name: KILMORE GAP Lat: -37.38 Lon: 144.97 Height: 527.8 m
Data from the previous 72 hours. | See also: Recent months at Kilmore Gap
Date/Time
EST
Temp
°C
App
Temp
°C
Dew
Point
°C
Rel
Hum
%
Delta-T
°C
Wind Press
QNH
hPa
Press
MSL
hPa
Rain since
9am
mm
Dir  Spd
km/h
Gust
km/h
Spd
kts
Gust
kts
01/12:30pm 15.1 13.4 9.9 71 2.8 NW 9 13 5 7 1023.4 1023.2 0.2
01/12:00pm 14.4 12.6 9.4 72 2.6 WSW 9 15 5 8 1023.9 1023.7 0.2
01/11:30am 13.6 11.8 8.0 69 2.9 NW 7 13 4 7 1024.1 1023.9 0.2
01/11:00am 12.4 11.5 9.4 82 1.6 SW 4 7 2 4 1024.5 1024.3 0.2
01/10:30am 11.0 10.3 10.2 95 0.4 W 4 7 2 4 1024.8 1024.6 0.2
01/10:17am 9.9 8.5 9.6 98 0.2 WSW 7 11 4 6 1024.9 1024.7 0.0
01/10:00am 9.3 8.4 9.2 99 0.1 SW 4 9 2 5 1025.0 1024.8 0.0
01/09:48am 8.5 6.8 8.4 99 0.0 S 7 11 4 6 1025.2 1025.5 0.0
01/09:30am 7.5 4.8 7.4 99 0.0 S 11 17 6 9 1025.3 1025.6 0.0
01/09:25am 7.5 4.8 7.4 99 0.0 S 11 17 6 9 1025.3 1025.6 0.0
01/09:00am 7.2 4.8 7.1 99 0.0 S 9 13 5 7 1025.3 1025.6 0.2
01/08:30am 6.9 3.7 6.8 99 0.0 S 13 20 7 11 1025.4 1025.7 0.2
01/08:00am 7.1 3.2 7.0 99 0.0 SSE 17 24 9 13 1025.3 1025.6 0.2
01/07:30am 6.8 3.6 6.7 99 0.0 S 13 19 7 10 1025.1 1025.4 0.2
01/07:00am 6.3 3.7 6.2 99 0.0 SW 9 13 5 7 1024.8 1025.1 0.2
01/06:30am 6.0 3.4 5.9 99 0.0 W 9 11 5 6 1024.6 1024.9 0.2
01/06:00am 5.9 3.6 5.8 99 0.0 WSW 7 9 4 5 1024.3 1024.6 0.2
01/05:30am 6.1 3.5 6.0 99 0.0 SW 9 13 5 7 1024.2 1024.5 0.2
01/05:00am 6.2 3.2 6.1 99 0.0 SSW 11 17 6 9 1024.5 1024.8 0.2
01/04:30am 6.2 2.8 6.1 99 0.0 SW 13 19 7 10 1024.5 1024.8 0.2
01/04:00am 6.1 2.3 5.8 98 0.1 SW 15 19 8 10 1024.5 1024.8 0.2
01/03:30am 5.7 1.4 5.4 98 0.1 SW 17 22 9 12 1024.6 1024.9 0.2
01/03:00am 5.8 1.2 5.5 98 0.1 SW 19 24 10 13 1024.7 1025.0 0.2
01/02:32am 6.2 2.0 5.9 98 0.1 SSW 17 22 9 12 1024.9 1025.2 0.2
01/02:30am 6.2 2.4 5.9 98 0.1 SSW 15 20 8 11 1024.9 1025.2 0.2
01/02:25am 6.2 2.4 5.9 98 0.1 SSW 15 20 8 11 1024.8 1025.1 0.2
01/02:00am 6.3 2.9 6.0 98 0.1 SSW 13 19 7 10 1025.1 1025.4 0.2
01/01:38am 6.3 2.2 6.0 98 0.1 SSW 17 20 9 11 1025.2 1025.5 0.2
01/01:35am 6.2 2.0 5.9 98 0.1 SSW 17 20 9 11 1025.2 1025.5 0.2
01/01:30am 6.3 2.2 6.0 98 0.1 SSW 17 20 9 11 1025.2 1025.5 0.2
01/01:08am 6.2 2.0 5.9 98 0.1 SW 17 20 9 11 1025.5 1025.8 0.2
01/01:00am 6.2 2.0 5.8 97 0.2 SW 17 20 9 11 1025.4 1025.7 0.2
01/12:58am 6.2 2.0 5.8 97 0.2 SW 17 20 9 11 1025.5 1025.8 0.2
01/12:30am 6.5 2.3 5.9 96 0.3 SSW 17 19 9 10 1025.6 1025.9 0.2
01/12:00am 6.7 3.0 6.1 96 0.3 SSW 15 19 8 10 1025.8 1026.1 0.2
 
Date/Time
EST
Temp
°C
App
Temp
°C
Dew
Point
°C
Rel
Hum
%
Delta-T
°C
Wind Press
QNH
hPa
Press
MSL
hPa
Rain since
9am
mm
Dir  Spd
km/h
Gust
km/h
Spd
kts
Gust
kts
30/11:30pm 7.5 4.2 6.3 92 0.6 SSW 13 19 7 10 1025.9 1026.2 0.2
30/11:00pm 7.7 3.6 6.2 90 0.7 S 17 22 9 12 1026.0 1026.3 0.2
30/10:30pm 8.3 5.4 6.4 88 0.9 SSW 11 15 6 8 1026.0 1026.3 0.2
30/10:00pm 8.8 5.9 6.6 86 1.0 S 11 15 6 8 1026.1 1026.5 0.2
30/09:30pm 9.2 6.0 7.0 86 1.1 S 13 17 7 9 1026.3 1026.7 0.2
30/09:00pm 9.5 5.3 7.4 87 1.0 S 19 20 10 11 1026.2 1026.6 0.2
30/08:30pm 9.3 5.1 7.3 87 1.0 SSE 19 20 10 11 1026.2 1026.6 0.2
30/08:00pm 9.7 6.3 7.6 87 1.0 SSE 15 17 8 9 1025.9 1026.2 0.2
30/07:30pm 10.2 5.9 7.8 85 1.2 SSE 20 22 11 12 1025.8 1026.1 0.2
30/07:00pm 10.7 7.0 8.1 84 1.3 SSE 17 22 9 12 1025.8 1026.1 0.2
30/06:30pm 11.4 7.2 8.3 81 1.6 SSE 20 28 11 15 1025.6 1025.9 0.2
30/06:00pm 12.2 9.0 8.5 78 1.9 SSE 15 19 8 10 1025.5 1025.8 0.2
30/05:30pm 13.1 9.1 8.4 73 2.4 SE 19 24 10 13 1025.6 1025.9 0.2
30/05:00pm 14.5 11.8 8.9 69 2.9 SSW 13 19 7 10 1025.7 1026.0 0.2
30/04:30pm 14.4 11.6 8.6 68 3.0 SSW 13 19 7 10 1025.7 1026.0 0.2
30/04:00pm 14.2 11.2 7.9 66 3.2 S 13 19 7 10 1025.9 1026.2 0.2
30/03:30pm 14.6 11.5 9.0 69 2.9 S 15 22 8 12 1026.0 1026.3 0.2
30/03:00pm 14.6 11.1 7.4 62 3.6 S 15 20 8 11 1026.2 1026.6 0.2
30/02:30pm 14.7 11.8 8.2 65 3.4 S 13 20 7 11 1026.6 1026.9 0.2
30/02:00pm 14.8 12.5 9.0 68 3.0 SSW 11 17 6 9 1026.9 1027.2 0.2
30/01:30pm 15.0 12.8 9.4 69 3.0 SSE 11 20 6 11 1027.1 1027.4 0.2
30/01:00pm 15.0 13.5 10.4 74 2.5 SSE 9 15 5 8 1027.3 1027.6 0.2
30/12:30pm 13.7 11.3 8.5 71 2.7 S 11 17 6 9 1027.5 1027.8 0.2
30/12:00pm 13.5 11.4 9.9 79 1.9 S 11 17 6 9 1027.9 1028.3 0.2
30/11:30am 12.6 10.4 9.2 80 1.8 SSE 11 19 6 10 1028.3 1028.7 0.2
30/11:00am 12.3 9.6 9.0 80 1.7 S 13 20 7 11 1028.6 1028.9 0.2
30/10:56am 12.5 9.9 9.5 82 1.6 S 13 20 7 11 1028.6 1028.9 0.2
30/10:30am 12.0 10.2 9.4 84 1.4 S 9 17 5 9 1028.6 1028.9 0.0
30/10:00am 10.9 8.4 8.1 83 1.4 S 11 17 6 9 1028.8 1029.1 0.0
30/09:51am 10.8 8.0 8.7 87 1.1 S 13 20 7 11 1028.7 1029.0 0.0
30/09:30am 9.8 7.3 8.4 91 0.7 S 11 17 6 9 1028.6 1028.9 0.0
30/09:27am 9.9 7.4 8.3 90 0.8 S 11 17 6 9 1028.6 1028.9 0.0
30/09:00am 9.0 6.2 8.7 98 0.1 S 13 22 7 12 1028.4 1028.8 0.0
30/08:30am 7.5 4.0 7.4 99 0.0 S 15 20 8 11 1028.3 1028.7 0.0
30/08:15am 7.5 4.0 7.4 99 0.0 SSE 15 19 8 10 1028.2 1028.6 0.0
30/08:00am 7.4 4.3 7.3 99 0.0 S 13 20 7 11 1028.0 1028.4 0.0
30/07:56am 7.3 3.8 7.2 99 0.0 S 15 20 8 11 1027.9 1028.3 0.0
30/07:49am 7.4 3.5 7.3 99 0.0 SSE 17 24 9 13 1027.8 1028.2 0.0
30/07:30am 7.0 3.4 6.9 99 0.0 S 15 20 8 11 1027.5 1027.8 0.0
30/07:11am 6.8 2.2 6.7 99 0.0 S 20 28 11 15 1027.3 1027.6 0.0
30/07:09am 6.8 2.2 6.7 99 0.0 S 20 28 11 15 1027.2 1027.5 0.0
30/07:00am 6.7 2.3 6.6 99 0.0 S 19 26 10 14 1027.2 1027.5 0.0
30/06:30am 6.6 2.2 6.5 99 0.0 S 19 24 10 13 1026.8 1027.1 0.0
30/06:00am 6.6 3.3 6.5 99 0.0 SSW 13 19 7 10 1026.4 1026.8 0.0
30/05:30am 6.6 2.6 6.5 99 0.0 S 17 22 9 12 1026.2 1026.6 0.0
30/05:00am 6.6 2.2 6.5 99 0.0 S 19 22 10 12 1025.9 1026.2 0.0
30/04:30am 6.5 2.1 6.4 99 0.0 S 19 22 10 12 1025.6 1025.9 0.0
30/04:00am 6.5 2.1 6.4 99 0.0 SSE 19 24 10 13 1025.6 1025.9 0.0
30/03:49am 6.6 1.6 6.5 99 0.0 SSE 22 30 12 16 1025.5 1025.8 0.0
30/03:37am 6.6 1.6 6.3 98 0.1 S 22 28 12 15 1025.6 1025.9 0.0
30/03:30am 6.5 2.1 6.4 99 0.0 S 19 28 10 15 1025.6 1025.9 0.0
30/03:00am 6.0 2.2 5.7 98 0.1 SSW 15 22 8 12 1025.7 1026.0 0.0
30/02:30am 5.8 1.6 5.5 98 0.1 SSW 17 20 9 11 1025.9 1026.2 0.0
30/02:29am 5.7 1.4 5.4 98 0.1 SSW 17 20 9 11 1025.9 1026.2 0.0
30/02:27am 5.8 1.6 5.5 98 0.1 SSW 17 20 9 11 1025.9 1026.2 0.0
30/02:23am 6.0 2.2 5.7 98 0.1 SSW 15 20 8 11 1025.9 1026.2 0.0
30/02:00am 6.2 2.4 5.8 97 0.2 S 15 19 8 10 1025.8 1026.1 0.0
30/01:30am 6.3 2.5 5.9 97 0.2 S 15 20 8 11 1026.0 1026.3 0.0
30/01:00am 6.4 1.6 5.8 96 0.3 SSE 20 24 11 13 1026.0 1026.3 0.0
30/12:30am 6.5 1.4 5.8 95 0.3 SSE 22 28 12 15 1026.0 1026.3 0.0
30/12:00am 6.7 1.6 6.0 95 0.3 SSE 22 28 12 15 1026.1 1026.5 0.0
 
Date/Time
EST
Temp
°C
App
Temp
°C
Dew
Point
°C
Rel
Hum
%
Delta-T
°C
Wind Press
QNH
hPa
Press
MSL
hPa
Rain since
9am
mm
Dir  Spd
km/h
Gust
km/h
Spd
kts
Gust
kts
29/11:30pm 6.8 1.3 5.9 94 0.4 SSE 24 28 13 15 1026.0 1026.3 0.0
29/11:00pm 7.2 1.7 6.1 93 0.5 SSE 24 30 13 16 1026.1 1026.5 0.0
29/10:30pm 7.3 2.4 6.7 96 0.3 S 22 28 12 15 1026.2 1026.6 0.0
29/10:00pm 7.7 2.5 7.4 98 0.1 S 24 28 13 15 1026.1 1026.5 0.0
29/09:58pm 7.8 2.7 7.5 98 0.1 S 24 28 13 15 1026.1 1026.5 0.0
29/09:47pm 7.9 3.2 7.6 98 0.1 S 22 28 12 15 1026.2 1026.6 0.0
29/09:30pm 8.1 3.8 7.8 98 0.1 S 20 28 11 15 1026.2 1026.6 0.0
29/09:18pm 8.3 4.2 8.0 98 0.1 S 19 26 10 14 1026.1 1026.5 0.0
29/09:00pm 8.6 5.0 8.3 98 0.1 S 17 26 9 14 1026.1 1026.5 0.0
29/08:30pm 8.8 4.9 8.5 98 0.1 S 19 28 10 15 1025.9 1026.2 0.0
29/08:00pm 9.0 4.9 8.7 98 0.1 SSW 20 28 11 15 1025.8 1026.1 0.0
29/07:35pm 9.1 5.2 8.6 97 0.3 SSW 19 32 10 17 1025.7 1026.0 0.0
29/07:30pm 9.1 5.2 8.6 97 0.3 SSW 19 32 10 17 1025.7 1026.0 0.0
29/07:24pm 9.1 5.0 8.6 97 0.3 SSW 20 28 11 15 1025.7 1026.0 0.0
29/07:00pm 9.4 5.3 8.6 95 0.4 SSW 20 28 11 15 1025.3 1025.6 0.0
29/06:30pm 9.5 5.6 8.6 94 0.5 SSW 19 24 10 13 1025.0 1025.3 0.0
29/06:11pm 9.8 5.9 8.6 92 0.6 SSW 19 24 10 13 1025.0 1025.3 0.0
29/06:00pm 9.9 6.0 8.7 92 0.6 S 19 26 10 14 1025.0 1025.3 0.0
29/05:30pm 10.3 6.4 8.6 89 0.9 S 19 28 10 15 1024.8 1025.1 0.0
29/05:00pm 11.2 5.1 8.4 83 1.4 SSE 30 39 16 21 1024.6 1024.9 0.0
29/04:48pm 11.4 6.1 8.6 83 1.4 S 26 39 14 21 1024.7 1025.0 0.0
29/04:30pm 11.4 6.2 9.0 85 1.2 S 26 33 14 18 1024.5 1024.8 0.0
29/04:00pm 11.2 5.6 8.9 86 1.2 S 28 37 15 20 1024.2 1024.5 0.0
29/03:30pm 11.3 5.4 9.0 86 1.2 S 30 41 16 22 1024.1 1024.4 0.0
29/03:20pm 11.1 6.6 8.7 85 1.2 S 22 33 12 18 1024.1 1024.4 0.0
29/03:00pm 11.2 5.6 8.6 84 1.3 S 28 39 15 21 1024.3 1024.6 0.0
29/02:30pm 11.6 5.6 8.8 83 1.4 S 30 41 16 22 1024.3 1024.6 0.0
29/02:25pm 11.5 5.5 8.5 82 1.5 S 30 41 16 22 1024.3 1024.6 0.0
29/02:00pm 11.3 4.9 8.5 83 1.4 S 32 41 17 22 1024.3 1024.6 0.0
29/01:58pm 11.3 4.9 8.5 83 1.4 S 32 41 17 22 1024.3 1024.6 0.0
29/01:30pm 12.0 6.5 9.2 83 1.4 S 28 39 15 21 1024.3 1024.6 0.0
29/01:28pm 11.7 6.0 8.4 80 1.7 S 28 39 15 21 1024.5 1024.8 0.0
29/01:00pm 11.3 5.2 8.3 82 1.5 S 30 39 16 21 1024.6 1024.9 0.0
29/12:30pm 11.7 5.8 8.9 83 1.4 S 30 41 16 22 1024.6 1024.9 0.0
29/12:00pm 10.9 4.6 7.6 80 1.6 S 30 41 16 22 1024.5 1024.8 0.0
29/11:30am 10.6 5.1 7.7 82 1.4 S 26 39 14 21 1024.8 1025.1 0.0
29/11:09am 10.3 4.0 7.4 82 1.4 S 30 39 16 21 1024.7 1025.0 0.0
29/11:00am 10.3 3.9 7.0 80 1.6 S 30 43 16 23 1024.7 1025.0 0.0
29/10:39am 9.9 3.2 7.3 84 1.3 SSE 32 43 17 23 1024.6 1024.9 0.0
29/10:30am 9.6 3.3 7.2 85 1.2 S 30 39 16 21 1024.6 1024.9 0.0
29/10:00am 8.9 2.1 6.7 86 1.0 S 32 39 17 21 1024.6 1024.9 0.0
29/09:30am 8.5 2.4 6.6 88 0.9 S 28 37 15 20 1024.3 1024.6 0.0
29/09:00am 7.9 1.7 6.0 88 0.9 S 28 37 15 20 1024.3 1024.6 0.6
29/08:31am 7.8 1.3 6.3 90 0.7 S 30 41 16 22 1024.1 1024.4 0.6
29/08:30am 7.7 1.1 6.2 90 0.7 S 30 41 16 22 1024.1 1024.4 0.6
29/08:00am 7.1 1.3 6.4 95 0.3 S 26 35 14 19 1024.0 1024.3 0.6
29/07:36am 6.6 1.2 6.3 98 0.1 S 24 35 13 19 1023.8 1024.1 0.6
29/07:34am 6.6 0.8 6.3 98 0.1 S 26 37 14 20 1023.9 1024.2 0.6
29/07:30am 6.5 0.7 6.2 98 0.1 S 26 37 14 20 1023.8 1024.1 0.6
29/07:17am 6.3 0.8 6.0 98 0.1 S 24 33 13 18 1023.7 1024.0 0.6
29/07:11am 6.4 0.9 6.1 98 0.1 S 24 37 13 20 1023.8 1024.1 0.6
29/07:00am 6.2 0.7 5.9 98 0.1 S 24 35 13 19 1023.6 1023.9 0.6
29/06:58am 6.2 0.7 5.9 98 0.1 S 24 35 13 19 1023.7 1024.0 0.6
29/06:57am 6.2 0.7 5.9 98 0.1 S 24 35 13 19 1023.7 1024.0 0.6
29/06:42am 6.0 0.8 5.7 98 0.1 S 22 33 12 18 1023.5 1023.8 0.6
29/06:32am 6.0 1.2 5.7 98 0.1 S 20 32 11 17 1023.5 1023.8 0.6
29/06:30am 5.9 1.1 5.6 98 0.1 S 20 32 11 17 1023.4 1023.7 0.6
29/06:24am 5.9 1.1 5.6 98 0.1 S 20 32 11 17 1023.3 1023.6 0.6
29/06:00am 5.8 1.2 5.5 98 0.1 S 19 28 10 15 1023.1 1023.4 0.6
29/05:30am 5.9 0.7 5.5 97 0.2 S 22 35 12 19 1022.8 1023.0 0.6
29/05:00am 5.8 -1.5 5.4 97 0.2 SSE 33 43 18 23 1022.5 1022.7 0.6
29/04:30am 5.9 -0.1 5.2 95 0.3 S 26 39 14 21 1022.3 1022.6 0.6
29/04:00am 6.0 0.4 5.3 95 0.3 S 24 32 13 17 1022.1 1022.4 0.6
29/03:30am 6.0 0.8 5.4 96 0.3 S 22 32 12 17 1021.9 1022.2 0.6
29/03:00am 6.0 -0.7 5.4 96 0.3 S 30 43 16 23 1021.9 1022.2 0.6
29/02:30am 6.0 -1.1 5.6 97 0.2 S 32 41 17 22 1021.9 1022.2 0.6
29/02:00am 6.2 -0.8 5.9 98 0.1 SSE 32 39 17 21 1021.9 1022.2 0.6
29/01:50am 6.3 -0.3 6.0 98 0.1 SSE 30 39 16 21 1021.9 1022.2 0.6
29/01:30am 6.3 -0.7 6.0 98 0.1 SSE 32 39 17 21 1021.9 1022.2 0.6
29/01:00am 6.4 -0.3 5.8 96 0.3 S 30 37 16 20 1022.0 1022.3 0.4
29/12:53am 6.6 0.0 5.9 95 0.3 S 30 43 16 23 1022.0 1022.3 0.4
29/12:30am 6.8 0.1 5.6 92 0.6 S 30 41 16 22 1021.8 1022.1 0.4
29/12:00am 6.9 -0.3 5.2 89 0.8 SSE 32 39 17 21 1021.8 1022.1 0.4
 
Date/Time
EST
Temp
°C
App
Temp
°C
Dew
Point
°C
Rel
Hum
%
Delta-T
°C
Wind Press
QNH
hPa
Press
MSL
hPa
Rain since
9am
mm
Dir  Spd
km/h
Gust
km/h
Spd
kts
Gust
kts
28/11:57pm 7.0 -0.1 5.3 89 0.8 SSE 32 39 17 21 1021.8 1022.1 0.4
28/11:30pm 7.1 0.0 5.3 88 0.8 SSE 32 39 17 21 1021.7 1022.0 0.4
28/11:00pm 7.1 -0.6 5.4 89 0.8 SSE 35 43 19 23 1021.6 1021.9 0.4
28/10:45pm 7.1 -0.2 5.6 90 0.7 SSE 33 44 18 24 1021.6 1021.9 0.4
28/10:30pm 7.1 0.1 5.9 92 0.6 SSE 32 39 17 21 1021.6 1021.9 0.4
28/10:00pm 7.3 0.4 6.6 95 0.3 S 32 41 17 22 1021.7 1022.0 0.4
28/09:30pm 7.4 0.6 6.7 95 0.3 S 32 41 17 22 1021.5 1021.8 0.4
28/09:00pm 7.4 0.6 6.7 95 0.3 S 32 41 17 22 1021.6 1021.9 0.4
28/08:33pm 7.5 1.4 6.6 94 0.4 S 28 48 15 26 1021.6 1021.9 0.4
28/08:30pm 7.5 1.4 6.6 94 0.4 S 28 43 15 23 1021.6 1021.9 0.4
28/08:09pm 7.6 1.2 6.9 95 0.3 S 30 50 16 27 1021.4 1021.7 0.4
28/08:00pm 7.7 1.7 7.0 95 0.3 S 28 43 15 23 1021.3 1021.6 0.4
28/07:41pm 7.8 1.1 7.4 97 0.2 S 32 44 17 24 1021.1 1021.3 0.4
28/07:30pm 7.8 1.5 7.2 96 0.3 S 30 43 16 23 1020.9 1021.1 0.4
28/07:29pm 7.8 1.5 7.2 96 0.3 S 30 43 16 23 1020.9 1021.1 0.4
28/07:00pm 7.9 2.3 7.1 95 0.4 S 26 41 14 22 1020.2 1020.5 0.4
28/06:30pm 8.2 1.9 7.4 95 0.4 S 30 48 16 26 1019.9 1020.2 0.4
28/06:00pm 8.3 2.8 7.5 95 0.4 S 26 41 14 22 1019.8 1020.1 0.4
28/05:30pm 8.7 3.2 7.6 93 0.5 S 26 39 14 21 1019.7 1020.0 0.4
28/05:00pm 8.8 2.9 7.4 91 0.7 S 28 41 15 22 1019.4 1019.6 0.4
28/04:30pm 9.0 3.1 7.6 91 0.7 SSW 28 41 15 22 1019.1 1019.3 0.4
28/04:00pm 9.5 4.1 8.1 91 0.7 S 26 41 14 22 1018.8 1019.0 0.4
28/03:30pm 9.9 4.7 8.7 92 0.6 S 26 44 14 24 1018.6 1018.8 0.4
28/03:00pm 10.1 4.9 8.9 92 0.6 S 26 37 14 20 1018.3 1018.6 0.4
28/02:30pm 10.0 4.9 9.1 94 0.5 S 26 43 14 23 1018.2 1018.5 0.4
28/02:17pm 10.0 5.3 9.4 96 0.3 S 24 37 13 20 1018.1 1018.4 0.4
28/02:00pm 9.9 4.9 9.4 97 0.3 S 26 41 14 22 1017.9 1018.1 0.4
28/01:59pm 9.8 4.7 9.3 97 0.3 S 26 41 14 22 1017.9 1018.1 0.4
28/01:30pm 9.6 5.0 9.5 99 0.1 S 24 37 13 20 1017.9 1018.1 0.4
28/01:02pm 9.4 5.1 9.3 99 0.1 S 22 33 12 18 1018.0 1018.3 0.2
28/01:00pm 9.4 4.7 9.3 99 0.1 S 24 35 13 19 1018.0 1018.3 0.2

Other formats

Comma delimited format used in spreadsheet applications
http://www.bom.gov.au/fwo/IDV60801/IDV60801.94860.axf

JavaScript Object Notation format (JSON) in row-major order
http://www.bom.gov.au/fwo/IDV60801/IDV60801.94860.json

Data quality

Most of these data are generated automatically and are frequently updated. Quality checks on data are not normally performed. It is possible for incorrect values to appear. Refer to information at About Latest Weather Observations and please check the disclaimer before using these data.